createdAt,value
2023-03-17T00:00:42.563Z,2.47
2023-03-17T00:03:18.131Z,2.57
2023-03-17T00:05:46.110Z,2.43
2023-03-17T00:08:17.210Z,2.23
2023-03-17T00:10:45.267Z,2.60
2023-03-17T00:13:14.334Z,2.30
2023-03-17T00:15:42.035Z,2.73
2023-03-17T00:18:16.357Z,2.43
2023-03-17T00:20:44.261Z,2.70
2023-03-17T00:23:15.465Z,2.70
2023-03-17T00:25:43.375Z,2.83
2023-03-17T00:28:16.933Z,2.60
2023-03-17T00:30:44.801Z,2.53
2023-03-17T00:33:16.052Z,1.97
2023-03-17T00:35:45.570Z,2.97
2023-03-17T00:38:16.782Z,2.37
2023-03-17T00:43:12.842Z,2.70
2023-03-17T00:45:40.768Z,2.53
2023-03-17T00:48:14.974Z,2.60
2023-03-17T00:50:43.056Z,2.80
2023-03-17T00:53:12.205Z,2.37
2023-03-17T00:55:39.867Z,3.07
2023-03-17T00:58:14.856Z,2.50
2023-03-17T01:00:42.621Z,2.53
2023-03-17T01:03:13.714Z,2.73
2023-03-17T01:05:42.608Z,2.70
2023-03-17T01:08:10.677Z,2.40
2023-03-17T01:10:38.405Z,2.53
2023-03-17T01:13:06.626Z,2.73
2023-03-17T01:15:35.435Z,3.03
2023-03-17T01:18:03.848Z,3.03
2023-03-17T01:20:34.603Z,2.73
2023-03-17T01:23:03.354Z,2.70
2023-03-17T01:25:31.841Z,2.60
2023-03-17T01:28:00.641Z,2.40
2023-03-17T01:30:30.727Z,2.83
2023-03-17T01:32:59.958Z,2.93
2023-03-17T01:35:29.436Z,2.60
2023-03-17T01:37:59.364Z,2.70
2023-03-17T01:40:29.766Z,2.80
2023-03-17T01:43:01.488Z,2.30
2023-03-17T01:46:06.862Z,2.77
2023-03-17T01:48:37.996Z,2.83
2023-03-17T01:51:07.125Z,2.73
2023-03-17T01:53:37.352Z,2.83
2023-03-17T01:56:05.551Z,2.70
2023-03-17T01:58:34.568Z,2.50
2023-03-17T02:01:02.358Z,2.97
2023-03-17T02:03:30.783Z,2.70
2023-03-17T02:05:59.121Z,2.40
2023-03-17T02:08:27.445Z,2.90
2023-03-17T02:10:57.374Z,2.53
2023-03-17T02:13:25.096Z,2.63
2023-03-17T02:15:53.222Z,2.63
2023-03-17T02:18:23.715Z,2.53
2023-03-17T02:21:45.305Z,3.03
2023-03-17T02:24:26.424Z,2.47
2023-03-17T02:26:55.665Z,2.30
2023-03-17T02:29:23.862Z,2.93
2023-03-17T02:31:52.177Z,2.73
2023-03-17T02:34:19.955Z,2.67
2023-03-17T02:36:47.744Z,2.47
2023-03-17T02:39:15.495Z,2.40
2023-03-17T02:41:44.531Z,2.73
2023-03-17T02:44:12.686Z,2.57
2023-03-17T02:46:40.434Z,2.53
2023-03-17T02:49:08.325Z,2.20
2023-03-17T02:51:36.628Z,2.67
2023-03-17T02:54:04.455Z,2.83
2023-03-17T02:56:32.814Z,2.40
2023-03-17T02:59:01.863Z,3.07
2023-03-17T03:01:30.976Z,2.73
2023-03-17T03:03:59.123Z,2.90
2023-03-17T03:06:26.856Z,2.73
2023-03-17T03:08:54.575Z,2.80
2023-03-17T03:11:22.253Z,2.60
2023-03-17T03:13:50.000Z,2.77
2023-03-17T03:16:19.200Z,2.40
2023-03-17T03:18:47.225Z,2.33
2023-03-17T03:21:15.430Z,2.10
2023-03-17T03:23:43.343Z,2.50
2023-03-17T03:26:11.006Z,2.60
2023-03-17T03:28:38.683Z,2.40
2023-03-17T03:31:07.398Z,2.43
2023-03-17T03:33:36.469Z,2.93
2023-03-17T03:36:04.449Z,2.40
2023-03-17T03:38:32.121Z,2.77
2023-03-17T03:40:59.804Z,2.67
2023-03-17T03:43:27.447Z,2.70
2023-03-17T03:45:55.578Z,2.57
2023-03-17T03:48:23.812Z,2.70
2023-03-17T03:50:57.081Z,2.40
2023-03-17T03:53:24.795Z,2.40
2023-03-17T03:55:52.791Z,2.10
2023-03-17T03:58:20.528Z,2.57
2023-03-17T04:00:48.205Z,2.30
2023-03-17T04:03:16.509Z,2.30
2023-03-17T04:05:44.243Z,2.63
2023-03-17T04:08:13.291Z,2.37
2023-03-17T04:10:41.061Z,2.57
2023-03-17T04:13:09.019Z,2.17
2023-03-17T04:15:36.701Z,2.43
2023-03-17T04:18:05.243Z,2.23
2023-03-17T04:20:33.412Z,2.47
2023-03-17T04:23:01.154Z,2.47
2023-03-17T04:25:30.352Z,2.70
2023-03-17T04:27:58.087Z,2.07
2023-03-17T04:30:26.403Z,2.17
2023-03-17T04:32:54.085Z,2.50
2023-03-17T04:35:22.860Z,2.47
2023-03-17T04:37:51.066Z,2.37
2023-03-17T04:40:19.762Z,2.43
2023-03-17T04:42:48.820Z,2.10
2023-03-17T04:45:16.817Z,2.50
2023-03-17T04:47:45.947Z,2.20
2023-03-17T04:50:14.743Z,1.87
2023-03-17T04:52:42.733Z,2.17
2023-03-17T04:55:11.791Z,2.50
2023-03-17T04:57:39.965Z,2.20
2023-03-17T05:00:11.707Z,2.40
2023-03-17T05:02:39.973Z,2.50
2023-03-17T05:05:08.525Z,2.67
2023-03-17T05:07:36.511Z,1.97
2023-03-17T05:10:05.460Z,2.57
2023-03-17T05:12:33.168Z,2.20
2023-03-17T05:15:00.840Z,2.20
2023-03-17T05:17:29.938Z,2.10
2023-03-17T05:19:57.639Z,2.20
2023-03-17T05:22:25.480Z,2.73
2023-03-17T05:24:53.198Z,2.27
2023-03-17T05:27:21.490Z,2.27
2023-03-17T05:29:49.769Z,2.13
2023-03-17T05:32:17.417Z,2.30
2023-03-17T05:34:46.703Z,2.20
2023-03-17T05:37:15.686Z,2.13
2023-03-17T05:39:43.729Z,1.67
2023-03-17T05:42:11.519Z,2.00
2023-03-17T05:44:39.668Z,2.50
2023-03-17T05:47:08.470Z,2.03
2023-03-17T05:49:36.155Z,2.20
2023-03-17T05:52:05.204Z,2.20
2023-03-17T05:54:32.815Z,2.70
2023-03-17T05:57:01.071Z,2.33
2023-03-17T05:59:29.035Z,1.97
2023-03-17T06:01:57.168Z,2.60
2023-03-17T06:04:25.273Z,2.10
2023-03-17T06:06:52.929Z,2.40
2023-03-17T06:09:22.030Z,2.10
2023-03-17T06:11:50.184Z,2.20
2023-03-17T06:14:18.105Z,2.40
2023-03-17T06:16:46.184Z,2.10
2023-03-17T06:19:13.878Z,2.00
2023-03-17T06:21:41.664Z,2.10
2023-03-17T06:24:10.064Z,2.40
2023-03-17T06:26:39.276Z,2.13
2023-03-17T06:29:09.536Z,2.03
2023-03-17T06:31:37.715Z,2.17
2023-03-17T06:34:05.664Z,2.60
2023-03-17T06:36:33.982Z,2.00
2023-03-17T06:39:02.079Z,2.20
2023-03-17T06:41:29.794Z,2.50
2023-03-17T06:43:58.856Z,1.90
2023-03-17T06:46:27.148Z,2.30
2023-03-17T06:48:54.934Z,2.47
2023-03-17T06:51:22.639Z,2.10
2023-03-17T06:53:50.517Z,1.90
2023-03-17T06:56:29.556Z,2.27
2023-03-17T06:58:59.087Z,1.93
2023-03-17T07:01:27.087Z,2.20
2023-03-17T07:03:55.464Z,3.17
2023-03-17T07:06:23.897Z,2.23
2023-03-17T07:08:52.293Z,2.40
2023-03-17T07:11:20.362Z,2.10
2023-03-17T07:13:48.001Z,2.17
2023-03-17T07:16:19.493Z,2.13
2023-03-17T07:18:47.192Z,2.03
2023-03-17T07:21:15.611Z,2.23
2023-03-17T07:23:43.407Z,2.30
2023-03-17T07:26:11.131Z,2.30
2023-03-17T07:28:38.827Z,2.20
2023-03-17T07:31:08.861Z,2.73
2023-03-17T07:33:38.032Z,2.37
2023-03-17T07:36:07.250Z,2.50
2023-03-17T07:38:35.030Z,2.27
2023-03-17T07:41:03.684Z,1.97
2023-03-17T07:43:31.907Z,2.37
2023-03-17T07:45:59.629Z,2.00
2023-03-17T07:48:27.432Z,2.20
2023-03-17T07:50:56.498Z,2.20
2023-03-17T07:53:24.191Z,2.27
2023-03-17T07:55:52.479Z,2.23
2023-03-17T07:58:20.228Z,2.37
2023-03-17T08:00:48.625Z,2.53
2023-03-17T08:03:16.842Z,2.20
2023-03-17T08:05:44.554Z,2.60
2023-03-17T08:08:13.963Z,2.70
2023-03-17T08:10:41.647Z,2.23
2023-03-17T08:13:09.308Z,3.10
2023-03-17T08:15:36.942Z,2.47
2023-03-17T08:18:04.867Z,3.00
2023-03-17T08:20:32.847Z,2.40
2023-03-17T08:23:00.758Z,2.70
2023-03-17T08:25:30.054Z,2.40
2023-03-17T08:27:57.747Z,2.40
2023-03-17T08:30:25.624Z,2.73
2023-03-17T08:32:54.005Z,2.30
2023-03-17T08:35:21.681Z,2.40
2023-03-17T08:37:49.626Z,2.70
2023-03-17T08:40:19.749Z,2.70
2023-03-17T08:42:50.668Z,2.50
2023-03-17T08:45:19.443Z,3.10
2023-03-17T08:47:47.571Z,2.70
2023-03-17T08:50:19.249Z,3.03
2023-03-17T08:52:46.962Z,2.37
2023-03-17T08:55:15.795Z,2.90
2023-03-17T08:57:44.753Z,3.10
2023-03-17T09:00:16.133Z,2.60
2023-03-17T09:02:44.955Z,2.50
2023-03-17T09:05:14.810Z,2.83
2023-03-17T09:07:43.563Z,3.10
2023-03-17T09:10:13.663Z,2.67
2023-03-17T09:12:41.495Z,2.77
2023-03-17T09:15:10.940Z,2.57
2023-03-17T09:17:40.037Z,3.00
2023-03-17T09:20:08.830Z,2.63
2023-03-17T09:22:36.938Z,2.63
2023-03-17T09:25:05.035Z,2.37
2023-03-17T09:27:32.797Z,2.90
2023-03-17T09:30:00.423Z,2.67
2023-03-17T09:32:28.142Z,3.20
2023-03-17T09:34:57.583Z,2.63
2023-03-17T09:37:25.475Z,2.87
2023-03-17T09:39:53.226Z,2.47
2023-03-17T09:42:33.348Z,3.20
2023-03-17T09:45:12.323Z,3.40
2023-03-17T09:48:26.111Z,3.17
2023-03-17T09:50:57.499Z,2.87
2023-03-17T09:53:33.866Z,2.80
2023-03-17T09:56:04.168Z,2.77
2023-03-17T09:58:33.172Z,2.93
2023-03-17T10:01:02.201Z,3.10
2023-03-17T10:03:30.116Z,3.73
2023-03-17T10:06:14.166Z,3.67
2023-03-17T10:08:47.923Z,3.83
2023-03-17T10:11:20.720Z,2.97
2023-03-17T10:13:55.929Z,3.30
2023-03-17T10:16:30.286Z,3.03
2023-03-17T10:19:01.853Z,3.37
2023-03-17T10:21:33.170Z,3.70
2023-03-17T10:24:01.632Z,3.37
2023-03-17T10:26:32.896Z,2.80
2023-03-17T10:29:04.004Z,3.40
2023-03-17T10:31:34.783Z,3.30
2023-03-17T10:34:13.676Z,3.30
2023-03-17T10:36:44.966Z,3.20
2023-03-17T10:39:16.119Z,4.13
2023-03-17T10:41:53.010Z,3.37
2023-03-17T10:44:30.924Z,3.60
2023-03-17T10:46:58.646Z,3.07
2023-03-17T10:49:26.678Z,3.23
2023-03-17T10:51:55.784Z,3.20
2023-03-17T10:54:25.645Z,3.43
2023-03-17T10:57:01.224Z,3.07
2023-03-17T11:02:09.325Z,3.47
2023-03-17T11:04:39.424Z,3.30
2023-03-17T11:07:11.176Z,2.93
2023-03-17T11:09:39.141Z,3.10
2023-03-17T11:12:08.997Z,3.10
2023-03-17T11:14:37.367Z,3.33
2023-03-17T11:17:08.237Z,3.33
2023-03-17T11:19:43.427Z,3.67
2023-03-17T11:22:16.266Z,3.23
2023-03-17T11:24:53.760Z,3.30
2023-03-17T11:27:28.937Z,3.67
2023-03-17T11:30:11.238Z,3.53
2023-03-17T11:32:43.663Z,3.27
2023-03-17T11:35:38.335Z,3.63
2023-03-17T11:38:25.893Z,3.33
2023-03-17T11:41:10.796Z,3.67
2023-03-17T11:43:54.320Z,3.10
2023-03-17T11:46:24.579Z,3.30
2023-03-17T11:48:56.262Z,2.83
2023-03-17T11:51:30.406Z,3.23
2023-03-17T11:54:09.468Z,3.80
2023-03-17T11:56:40.581Z,3.60
2023-03-17T11:59:16.809Z,3.63
2023-03-17T12:01:51.222Z,3.83
2023-03-17T12:04:21.657Z,3.50
2023-03-17T12:06:52.532Z,4.17
2023-03-17T12:09:29.450Z,3.60
2023-03-17T12:11:58.249Z,4.07
2023-03-17T12:14:30.112Z,3.83
2023-03-17T12:17:03.672Z,3.43
2023-03-17T12:19:37.898Z,3.27
2023-03-17T12:22:08.213Z,4.07
2023-03-17T12:24:41.218Z,4.10
2023-03-17T12:27:15.368Z,3.50
2023-03-17T12:29:47.333Z,3.60
2023-03-17T12:32:20.988Z,3.67
2023-03-17T12:34:52.337Z,4.00
2023-03-17T12:37:21.406Z,4.07
2023-03-17T12:39:54.687Z,4.27
2023-03-17T12:42:37.416Z,4.00
2023-03-17T12:45:22.378Z,3.80
2023-03-17T12:47:58.406Z,4.07
2023-03-17T12:50:41.973Z,4.07
2023-03-17T12:53:28.096Z,4.73
2023-03-17T12:56:01.969Z,4.50
2023-03-17T12:58:33.429Z,4.13
2023-03-17T13:01:13.103Z,4.90
2023-03-17T13:03:47.823Z,4.47
2023-03-17T13:06:18.378Z,4.50
2023-03-17T13:08:46.715Z,4.87
2023-03-17T13:11:22.233Z,4.43
2023-03-17T13:14:08.583Z,4.57
2023-03-17T13:16:39.253Z,4.80
2023-03-17T13:19:22.941Z,4.50
2023-03-17T13:21:53.873Z,4.63
2023-03-17T13:24:37.117Z,5.57
2023-03-17T13:27:11.885Z,4.77
2023-03-17T13:29:43.088Z,4.60
2023-03-17T13:32:39.604Z,4.10
2023-03-17T13:35:22.134Z,4.00
2023-03-17T13:38:17.947Z,4.33
2023-03-17T13:40:53.039Z,4.27
2023-03-17T13:43:33.926Z,4.60
2023-03-17T13:46:21.132Z,4.50
2023-03-17T13:48:49.276Z,4.30
2023-03-17T13:51:22.001Z,5.00
2023-03-17T13:53:53.968Z,4.67
2023-03-17T13:56:27.113Z,4.60
2023-03-17T13:59:07.383Z,5.23
2023-03-17T14:01:40.777Z,5.17
2023-03-17T14:04:17.717Z,4.90
2023-03-17T14:06:46.367Z,5.30
2023-03-17T14:09:22.776Z,4.83
2023-03-17T14:11:52.127Z,4.60
2023-03-17T14:14:32.607Z,5.23
2023-03-17T14:17:06.121Z,4.57
2023-03-17T14:19:34.520Z,5.13
2023-03-17T14:22:06.140Z,5.53
2023-03-17T14:24:34.941Z,5.17
2023-03-17T14:27:07.231Z,4.97
2023-03-17T14:29:36.442Z,5.13
2023-03-17T14:32:06.472Z,5.37
2023-03-17T14:34:34.886Z,4.43
2023-03-17T14:37:04.315Z,5.70
2023-03-17T14:39:32.205Z,4.60
2023-03-17T14:42:02.651Z,5.60
2023-03-17T14:44:38.505Z,5.47
2023-03-17T14:47:08.000Z,5.50
2023-03-17T14:49:35.750Z,5.27
2023-03-17T14:52:03.450Z,4.97
2023-03-17T14:54:33.511Z,5.50
2023-03-17T14:57:05.008Z,5.13
2023-03-17T14:59:35.501Z,5.43
2023-03-17T15:02:17.379Z,5.97
2023-03-17T15:04:52.385Z,5.80
2023-03-17T15:07:31.242Z,5.50
2023-03-17T15:10:00.646Z,5.33
2023-03-17T15:12:29.115Z,5.40
2023-03-17T15:14:59.784Z,5.40
2023-03-17T15:17:30.802Z,5.50
2023-03-17T15:20:02.023Z,5.23
2023-03-17T15:22:32.180Z,5.77
2023-03-17T15:25:01.511Z,5.23
2023-03-17T15:27:30.935Z,5.70
2023-03-17T15:29:58.899Z,5.83
2023-03-17T15:32:29.242Z,6.33
2023-03-17T15:34:57.872Z,5.57
2023-03-17T15:37:27.526Z,5.97
2023-03-17T15:39:56.358Z,5.67
2023-03-17T15:42:25.816Z,5.47
2023-03-17T15:44:54.009Z,6.17
2023-03-17T15:47:23.384Z,6.30
2023-03-17T15:49:53.019Z,9.83
2023-03-17T15:52:24.882Z,6.70
2023-03-17T15:54:53.264Z,6.30
2023-03-17T15:57:21.052Z,5.90
2023-03-17T15:59:48.692Z,6.00
2023-03-17T16:02:26.426Z,6.67
2023-03-17T16:04:56.229Z,6.40
2023-03-17T16:07:24.841Z,6.17
2023-03-17T16:09:52.597Z,5.43
2023-03-17T16:12:20.359Z,6.30
2023-03-17T16:14:48.224Z,6.13
2023-03-17T16:17:21.473Z,6.33
2023-03-17T16:19:49.214Z,6.47
2023-03-17T16:22:36.318Z,6.03
2023-03-17T16:25:04.331Z,5.93
2023-03-17T16:27:32.043Z,6.40
2023-03-17T16:29:59.760Z,6.13
2023-03-17T16:32:27.531Z,6.60
2023-03-17T16:34:55.282Z,6.47
2023-03-17T16:37:22.940Z,6.37
2023-03-17T16:39:52.319Z,6.37
2023-03-17T16:42:23.374Z,7.60
2023-03-17T16:44:51.415Z,6.80
2023-03-17T16:47:23.485Z,9.43
2023-03-17T16:49:58.642Z,8.07
2023-03-17T16:52:34.589Z,8.03
2023-03-17T16:55:15.534Z,7.57
2023-03-17T16:57:46.005Z,9.20
2023-03-17T17:00:25.708Z,8.30
2023-03-17T17:02:59.828Z,8.03
2023-03-17T17:05:34.098Z,8.33
2023-03-17T17:08:11.620Z,9.50
2023-03-17T17:10:46.522Z,8.87
2023-03-17T17:13:26.287Z,7.27
2023-03-17T17:16:12.883Z,7.17
2023-03-17T17:18:53.270Z,9.27
2023-03-17T17:21:22.148Z,7.17
2023-03-17T17:23:56.830Z,7.30
2023-03-17T17:26:29.109Z,6.80
2023-03-17T17:28:58.058Z,6.73
2023-03-17T17:31:30.136Z,7.77
2023-03-17T17:34:05.458Z,6.87
2023-03-17T17:36:37.723Z,6.87
2023-03-17T17:39:24.122Z,6.17
2023-03-17T17:42:03.416Z,6.80
2023-03-17T17:44:37.242Z,11.20
2023-03-17T17:47:19.902Z,8.37
2023-03-17T17:49:59.008Z,6.83
2023-03-17T17:52:35.564Z,6.43
2023-03-17T17:55:15.756Z,6.90
2023-03-17T17:57:52.699Z,7.97
2023-03-17T18:00:26.475Z,10.10
2023-03-17T18:02:55.271Z,9.00
2023-03-17T18:05:32.533Z,10.27
2023-03-17T18:08:02.716Z,8.93
2023-03-17T18:10:37.848Z,8.57
2023-03-17T18:13:13.048Z,9.13
2023-03-17T18:15:45.710Z,8.73
2023-03-17T18:18:25.641Z,7.87
2023-03-17T18:20:56.756Z,7.87
2023-03-17T18:23:27.792Z,7.57
2023-03-17T18:26:05.085Z,7.97
2023-03-17T18:28:47.219Z,7.97
2023-03-17T18:31:22.048Z,8.60
2023-03-17T18:34:06.773Z,9.30
2023-03-17T18:36:43.665Z,8.87
2023-03-17T18:39:12.796Z,10.77
2023-03-17T18:41:46.582Z,26.67
2023-03-17T18:44:31.056Z,29.17
2023-03-17T18:47:04.660Z,15.97
2023-03-17T18:49:37.975Z,11.30
2023-03-17T18:52:08.776Z,9.10
2023-03-17T18:54:40.633Z,10.17
2023-03-17T18:57:14.304Z,9.77
2023-03-17T18:59:49.020Z,9.23
2023-03-17T19:02:24.615Z,9.40
2023-03-17T19:04:56.742Z,10.30
2023-03-17T19:07:40.137Z,10.43
2023-03-17T19:10:19.521Z,11.20
2023-03-17T19:12:53.122Z,12.07
2023-03-17T19:15:23.316Z,10.93
2023-03-17T19:17:55.122Z,9.67
2023-03-17T19:20:30.625Z,10.53
2023-03-17T19:23:07.717Z,10.33
2023-03-17T19:25:46.169Z,11.50
2023-03-17T19:28:25.105Z,11.73
2023-03-17T19:30:59.334Z,10.77
2023-03-17T19:33:36.681Z,13.50
2023-03-17T19:36:17.713Z,12.57
2023-03-17T19:38:47.489Z,13.60
2023-03-17T19:41:18.267Z,12.53
2023-03-17T19:43:49.336Z,14.73
2023-03-17T19:46:21.765Z,14.73
2023-03-17T19:48:50.453Z,14.43
2023-03-17T19:51:28.048Z,12.20
2023-03-17T19:53:59.325Z,8.33
2023-03-17T19:56:40.055Z,7.10
2023-03-17T19:59:15.028Z,6.00
2023-03-17T20:01:48.986Z,7.17
2023-03-17T20:04:34.587Z,6.27
2023-03-17T20:07:21.636Z,5.03
2023-03-17T20:09:50.411Z,5.43
2023-03-17T20:12:26.676Z,4.30
2023-03-17T20:14:58.468Z,5.37
2023-03-17T20:17:38.796Z,4.07
2023-03-17T20:20:17.627Z,4.17
2023-03-17T20:22:49.075Z,4.00
2023-03-17T20:25:22.173Z,4.20
2023-03-17T20:27:56.308Z,4.20
2023-03-17T20:30:39.743Z,4.50
2023-03-17T20:33:13.097Z,3.87
2023-03-17T20:35:43.379Z,4.03
2023-03-17T20:38:16.958Z,4.30
2023-03-17T20:41:01.546Z,3.57
2023-03-17T20:43:35.212Z,3.87
2023-03-17T20:46:08.806Z,3.90
2023-03-17T20:48:43.532Z,3.73
2023-03-17T20:51:21.928Z,4.10
2023-03-17T20:54:05.878Z,4.10
2023-03-17T20:56:40.793Z,3.80
2023-03-17T20:59:16.678Z,4.00
2023-03-17T21:01:50.400Z,3.27
2023-03-17T21:04:21.442Z,3.47
2023-03-17T21:06:58.561Z,3.67
2023-03-17T21:09:33.961Z,3.23
2023-03-17T21:12:08.681Z,3.30
2023-03-17T21:14:39.479Z,3.30
2023-03-17T21:17:10.910Z,3.40
2023-03-17T21:19:49.145Z,2.73
2023-03-17T21:22:28.929Z,5.00
2023-03-17T21:25:18.978Z,3.00
2023-03-17T21:27:55.817Z,3.03
2023-03-17T21:30:26.911Z,3.10
2023-03-17T21:33:04.544Z,2.67
2023-03-17T21:35:37.599Z,2.87
2023-03-17T21:38:17.029Z,4.97
2023-03-17T21:40:49.004Z,2.80
2023-03-17T21:43:20.192Z,2.87
2023-03-17T21:45:50.903Z,2.77
2023-03-17T21:48:26.535Z,3.00
2023-03-17T21:51:00.798Z,2.70
2023-03-17T21:53:39.093Z,3.00
2023-03-17T21:56:20.994Z,3.13
2023-03-17T21:58:56.256Z,3.77
2023-03-17T22:01:30.246Z,3.87
2023-03-17T22:04:07.180Z,3.17
2023-03-17T22:06:44.773Z,4.17
2023-03-17T22:09:23.766Z,4.77
2023-03-17T22:12:11.941Z,2.80
2023-03-17T22:14:46.019Z,3.73
2023-03-17T22:17:20.038Z,2.53
2023-03-17T22:19:53.357Z,3.03
2023-03-17T22:22:23.591Z,3.77
2023-03-17T22:25:03.131Z,3.77
2023-03-17T22:27:42.672Z,3.13
2023-03-17T22:30:17.292Z,3.03
2023-03-17T22:32:56.851Z,2.90
2023-03-17T22:35:29.690Z,3.00
2023-03-17T22:38:05.776Z,3.23
2023-03-17T22:40:37.413Z,2.97
2023-03-17T22:43:10.168Z,2.90
2023-03-17T22:45:40.724Z,2.87
2023-03-17T22:48:13.407Z,3.30
2023-03-17T22:50:43.829Z,3.83
2023-03-17T22:53:18.076Z,2.60
2023-03-17T22:55:56.848Z,3.10
2023-03-17T22:58:30.940Z,3.20
2023-03-17T23:01:01.419Z,3.33
2023-03-17T23:03:30.290Z,3.10
2023-03-17T23:06:08.830Z,3.23
2023-03-17T23:08:57.011Z,3.13
2023-03-17T23:11:31.310Z,2.77
2023-03-17T23:14:03.237Z,3.13
2023-03-17T23:16:32.331Z,3.00
2023-03-17T23:19:06.631Z,3.00
2023-03-17T23:21:38.090Z,4.23
2023-03-17T23:24:14.480Z,3.07
2023-03-17T23:26:42.852Z,2.73
2023-03-17T23:29:20.737Z,2.80
2023-03-17T23:31:53.478Z,3.00
2023-03-17T23:34:27.203Z,3.10
2023-03-17T23:37:03.213Z,3.20
2023-03-17T23:39:34.376Z,3.07
2023-03-17T23:42:09.351Z,2.90
2023-03-17T23:44:43.143Z,2.87
2023-03-17T23:47:17.365Z,2.70
2023-03-17T23:49:53.740Z,3.40
2023-03-17T23:52:25.284Z,3.30
2023-03-17T23:54:55.626Z,2.70
2023-03-17T23:57:25.808Z,3.73
2023-03-17T23:59:57.904Z,3.07
